sensor_id;sensor_type;location;lat;lon;timestamp;temperature;humidity
13697;DHT22;6920;50.080;8.226;2023-03-31T00:01:59;11.30;99.90
13697;DHT22;6920;50.080;8.226;2023-03-31T00:04:28;11.30;99.90
13697;DHT22;6920;50.080;8.226;2023-03-31T00:06:56;11.30;99.90
13697;DHT22;6920;50.080;8.226;2023-03-31T00:09:23;11.20;99.90
13697;DHT22;6920;50.080;8.226;2023-03-31T00:11:54;11.20;99.90
13697;DHT22;6920;50.080;8.226;2023-03-31T00:14:22;11.00;99.90
13697;DHT22;6920;50.080;8.226;2023-03-31T00:16:49;10.90;99.90
13697;DHT22;6920;50.080;8.226;2023-03-31T00:19:16;10.90;99.90
13697;DHT22;6920;50.080;8.226;2023-03-31T00:21:48;10.80;99.90
13697;DHT22;6920;50.080;8.226;2023-03-31T00:24:17;10.80;99.90
13697;DHT22;6920;50.080;8.226;2023-03-31T00:26:44;10.80;99.90
13697;DHT22;6920;50.080;8.226;2023-03-31T00:29:12;10.70;99.90
13697;DHT22;6920;50.080;8.226;2023-03-31T00:31:39;10.70;99.90
13697;DHT22;6920;50.080;8.226;2023-03-31T00:34:06;10.80;99.90
13697;DHT22;6920;50.080;8.226;2023-03-31T00:36:33;10.70;99.90
13697;DHT22;6920;50.080;8.226;2023-03-31T00:39:12;10.70;99.90
13697;DHT22;6920;50.080;8.226;2023-03-31T00:41:40;10.80;99.90
13697;DHT22;6920;50.080;8.226;2023-03-31T00:44:10;10.80;99.90
13697;DHT22;6920;50.080;8.226;2023-03-31T00:46:41;10.80;99.90
13697;DHT22;6920;50.080;8.226;2023-03-31T00:49:15;10.80;99.90
13697;DHT22;6920;50.080;8.226;2023-03-31T00:51:46;10.90;99.90
13697;DHT22;6920;50.080;8.226;2023-03-31T00:54:16;10.80;99.90
13697;DHT22;6920;50.080;8.226;2023-03-31T00:56:48;10.80;99.90
13697;DHT22;6920;50.080;8.226;2023-03-31T00:59:18;10.80;99.90
13697;DHT22;6920;50.080;8.226;2023-03-31T01:01:47;10.70;99.90
13697;DHT22;6920;50.080;8.226;2023-03-31T01:04:18;10.80;99.90
13697;DHT22;6920;50.080;8.226;2023-03-31T01:06:53;10.80;99.90
13697;DHT22;6920;50.080;8.226;2023-03-31T01:09:28;10.80;99.90
13697;DHT22;6920;50.080;8.226;2023-03-31T01:12:00;10.70;99.90
13697;DHT22;6920;50.080;8.226;2023-03-31T01:14:28;10.70;99.90
13697;DHT22;6920;50.080;8.226;2023-03-31T01:16:56;10.60;99.90
13697;DHT22;6920;50.080;8.226;2023-03-31T01:19:34;10.60;99.90
13697;DHT22;6920;50.080;8.226;2023-03-31T01:22:16;10.60;99.90
13697;DHT22;6920;50.080;8.226;2023-03-31T01:28:13;10.50;99.90
13697;DHT22;6920;50.080;8.226;2023-03-31T01:34:27;10.60;99.90
13697;DHT22;6920;50.080;8.226;2023-03-31T01:40:35;10.60;99.90
13697;DHT22;6920;50.080;8.226;2023-03-31T01:43:10;10.60;99.90
13697;DHT22;6920;50.080;8.226;2023-03-31T01:45:46;10.60;99.90
13697;DHT22;6920;50.080;8.226;2023-03-31T01:48:16;10.50;99.90
13697;DHT22;6920;50.080;8.226;2023-03-31T01:50:47;10.50;99.90
13697;DHT22;6920;50.080;8.226;2023-03-31T01:53:21;10.30;99.90
13697;DHT22;6920;50.080;8.226;2023-03-31T01:55:57;10.30;99.90
13697;DHT22;6920;50.080;8.226;2023-03-31T01:58:32;10.20;99.90
13697;DHT22;6920;50.080;8.226;2023-03-31T02:01:04;10.30;99.90
13697;DHT22;6920;50.080;8.226;2023-03-31T02:03:33;10.30;99.90
13697;DHT22;6920;50.080;8.226;2023-03-31T02:06:07;10.20;99.90
13697;DHT22;6920;50.080;8.226;2023-03-31T02:08:39;10.30;99.90
13697;DHT22;6920;50.080;8.226;2023-03-31T02:11:09;10.30;99.90
13697;DHT22;6920;50.080;8.226;2023-03-31T02:13:38;10.30;99.90
13697;DHT22;6920;50.080;8.226;2023-03-31T02:16:10;10.30;99.90
13697;DHT22;6920;50.080;8.226;2023-03-31T02:18:40;10.40;99.90
13697;DHT22;6920;50.080;8.226;2023-03-31T02:21:10;10.40;99.90
13697;DHT22;6920;50.080;8.226;2023-03-31T02:23:39;10.40;99.90
13697;DHT22;6920;50.080;8.226;2023-03-31T02:26:11;10.40;99.90
13697;DHT22;6920;50.080;8.226;2023-03-31T02:28:39;10.30;99.90
13697;DHT22;6920;50.080;8.226;2023-03-31T02:31:18;10.30;99.90
13697;DHT22;6920;50.080;8.226;2023-03-31T02:33:48;10.30;99.90
13697;DHT22;6920;50.080;8.226;2023-03-31T02:36:15;10.30;99.90
13697;DHT22;6920;50.080;8.226;2023-03-31T02:38:46;10.40;99.90
13697;DHT22;6920;50.080;8.226;2023-03-31T02:41:16;10.30;99.90
13697;DHT22;6920;50.080;8.226;2023-03-31T02:43:43;10.20;99.90
13697;DHT22;6920;50.080;8.226;2023-03-31T02:46:10;10.20;99.90
13697;DHT22;6920;50.080;8.226;2023-03-31T02:48:40;10.20;99.90
13697;DHT22;6920;50.080;8.226;2023-03-31T02:51:24;10.10;99.90
13697;DHT22;6920;50.080;8.226;2023-03-31T02:54:16;10.10;99.90
13697;DHT22;6920;50.080;8.226;2023-03-31T02:59:47;10.30;99.90
13697;DHT22;6920;50.080;8.226;2023-03-31T03:02:20;10.30;99.90
13697;DHT22;6920;50.080;8.226;2023-03-31T03:05:08;10.30;99.90
13697;DHT22;6920;50.080;8.226;2023-03-31T03:07:45;10.40;99.90
13697;DHT22;6920;50.080;8.226;2023-03-31T03:10:17;10.40;99.90
13697;DHT22;6920;50.080;8.226;2023-03-31T03:12:53;10.40;99.90
13697;DHT22;6920;50.080;8.226;2023-03-31T03:15:25;10.40;99.90
13697;DHT22;6920;50.080;8.226;2023-03-31T03:17:55;10.40;99.90
13697;DHT22;6920;50.080;8.226;2023-03-31T03:20:22;10.40;99.90
13697;DHT22;6920;50.080;8.226;2023-03-31T03:22:50;10.40;99.90
13697;DHT22;6920;50.080;8.226;2023-03-31T03:25:17;10.40;99.90
13697;DHT22;6920;50.080;8.226;2023-03-31T03:27:45;10.30;99.90
13697;DHT22;6920;50.080;8.226;2023-03-31T03:30:14;10.30;99.90
13697;DHT22;6920;50.080;8.226;2023-03-31T03:32:41;10.20;99.90
13697;DHT22;6920;50.080;8.226;2023-03-31T03:35:08;10.30;99.90
13697;DHT22;6920;50.080;8.226;2023-03-31T03:37:36;10.30;99.90
13697;DHT22;6920;50.080;8.226;2023-03-31T03:40:04;10.30;99.90
13697;DHT22;6920;50.080;8.226;2023-03-31T03:42:31;10.30;99.90
13697;DHT22;6920;50.080;8.226;2023-03-31T03:44:58;10.30;99.90
13697;DHT22;6920;50.080;8.226;2023-03-31T03:47:27;10.30;99.90
13697;DHT22;6920;50.080;8.226;2023-03-31T03:49:54;10.30;99.90
13697;DHT22;6920;50.080;8.226;2023-03-31T03:52:21;10.10;99.90
13697;DHT22;6920;50.080;8.226;2023-03-31T03:54:48;10.10;99.90
13697;DHT22;6920;50.080;8.226;2023-03-31T03:57:15;10.10;99.90
13697;DHT22;6920;50.080;8.226;2023-03-31T03:59:42;10.20;99.90
13697;DHT22;6920;50.080;8.226;2023-03-31T04:02:10;10.20;99.90
13697;DHT22;6920;50.080;8.226;2023-03-31T04:04:38;10.20;99.90
13697;DHT22;6920;50.080;8.226;2023-03-31T04:07:05;10.10;99.90
13697;DHT22;6920;50.080;8.226;2023-03-31T04:09:33;10.10;99.90
13697;DHT22;6920;50.080;8.226;2023-03-31T04:12:00;10.10;99.90
13697;DHT22;6920;50.080;8.226;2023-03-31T04:14:27;10.10;99.90
13697;DHT22;6920;50.080;8.226;2023-03-31T04:16:54;10.00;99.90
13697;DHT22;6920;50.080;8.226;2023-03-31T04:19:23;10.00;99.90
13697;DHT22;6920;50.080;8.226;2023-03-31T04:21:53;10.00;99.90
13697;DHT22;6920;50.080;8.226;2023-03-31T04:24:28;10.00;99.90
13697;DHT22;6920;50.080;8.226;2023-03-31T04:27:00;9.90;99.90
13697;DHT22;6920;50.080;8.226;2023-03-31T04:29:27;9.90;99.90
13697;DHT22;6920;50.080;8.226;2023-03-31T04:32:05;10.00;99.90
13697;DHT22;6920;50.080;8.226;2023-03-31T04:34:34;10.00;99.90
13697;DHT22;6920;50.080;8.226;2023-03-31T04:37:17;9.90;99.90
13697;DHT22;6920;50.080;8.226;2023-03-31T04:39:44;10.00;99.90
13697;DHT22;6920;50.080;8.226;2023-03-31T04:42:15;10.00;99.90
13697;DHT22;6920;50.080;8.226;2023-03-31T04:44:43;10.00;99.90
13697;DHT22;6920;50.080;8.226;2023-03-31T04:47:12;10.10;99.90
13697;DHT22;6920;50.080;8.226;2023-03-31T04:49:39;10.20;99.90
13697;DHT22;6920;50.080;8.226;2023-03-31T04:52:09;10.20;99.90
13697;DHT22;6920;50.080;8.226;2023-03-31T04:54:39;10.10;99.90
13697;DHT22;6920;50.080;8.226;2023-03-31T04:57:06;10.00;99.90
13697;DHT22;6920;50.080;8.226;2023-03-31T04:59:33;10.00;99.90
13697;DHT22;6920;50.080;8.226;2023-03-31T05:02:00;10.00;99.90
13697;DHT22;6920;50.080;8.226;2023-03-31T05:04:36;10.00;99.90
13697;DHT22;6920;50.080;8.226;2023-03-31T05:07:06;10.00;99.90
13697;DHT22;6920;50.080;8.226;2023-03-31T05:09:35;10.00;99.90
13697;DHT22;6920;50.080;8.226;2023-03-31T05:12:05;10.00;99.90
13697;DHT22;6920;50.080;8.226;2023-03-31T05:14:33;9.90;99.90
13697;DHT22;6920;50.080;8.226;2023-03-31T05:17:02;9.90;99.90
13697;DHT22;6920;50.080;8.226;2023-03-31T05:19:29;9.90;99.90
13697;DHT22;6920;50.080;8.226;2023-03-31T05:22:01;9.90;99.90
13697;DHT22;6920;50.080;8.226;2023-03-31T05:24:44;10.00;99.90
13697;DHT22;6920;50.080;8.226;2023-03-31T05:27:15;10.00;99.90
13697;DHT22;6920;50.080;8.226;2023-03-31T05:29:42;10.00;99.90
13697;DHT22;6920;50.080;8.226;2023-03-31T05:32:10;10.00;99.90
13697;DHT22;6920;50.080;8.226;2023-03-31T05:34:37;10.00;99.90
13697;DHT22;6920;50.080;8.226;2023-03-31T05:37:04;10.00;99.90
13697;DHT22;6920;50.080;8.226;2023-03-31T05:39:31;10.10;99.90
13697;DHT22;6920;50.080;8.226;2023-03-31T05:41:58;10.20;99.90
13697;DHT22;6920;50.080;8.226;2023-03-31T05:44:27;10.10;99.90
13697;DHT22;6920;50.080;8.226;2023-03-31T05:46:54;10.10;99.90
13697;DHT22;6920;50.080;8.226;2023-03-31T05:49:21;10.00;99.90
13697;DHT22;6920;50.080;8.226;2023-03-31T05:51:48;10.10;99.90
13697;DHT22;6920;50.080;8.226;2023-03-31T05:54:15;10.10;99.90
13697;DHT22;6920;50.080;8.226;2023-03-31T05:56:43;10.10;99.90
13697;DHT22;6920;50.080;8.226;2023-03-31T05:59:10;10.10;99.90
13697;DHT22;6920;50.080;8.226;2023-03-31T06:01:38;10.20;99.90
13697;DHT22;6920;50.080;8.226;2023-03-31T06:04:05;10.10;99.90
13697;DHT22;6920;50.080;8.226;2023-03-31T06:06:33;10.10;99.90
13697;DHT22;6920;50.080;8.226;2023-03-31T06:09:03;10.10;99.90
13697;DHT22;6920;50.080;8.226;2023-03-31T06:11:30;10.10;99.90
13697;DHT22;6920;50.080;8.226;2023-03-31T06:13:57;10.10;99.90
13697;DHT22;6920;50.080;8.226;2023-03-31T06:16:24;10.10;99.90
13697;DHT22;6920;50.080;8.226;2023-03-31T06:18:54;10.10;99.90
13697;DHT22;6920;50.080;8.226;2023-03-31T06:21:22;10.10;99.90
13697;DHT22;6920;50.080;8.226;2023-03-31T06:23:49;10.10;99.90
13697;DHT22;6920;50.080;8.226;2023-03-31T06:26:19;10.10;99.90
13697;DHT22;6920;50.080;8.226;2023-03-31T06:28:47;10.00;99.90
13697;DHT22;6920;50.080;8.226;2023-03-31T06:31:17;10.00;99.90
13697;DHT22;6920;50.080;8.226;2023-03-31T06:33:45;10.00;99.90
13697;DHT22;6920;50.080;8.226;2023-03-31T06:36:15;10.10;99.90
13697;DHT22;6920;50.080;8.226;2023-03-31T06:38:43;10.00;99.90
13697;DHT22;6920;50.080;8.226;2023-03-31T06:41:11;10.10;99.90
13697;DHT22;6920;50.080;8.226;2023-03-31T06:43:39;10.10;99.90
13697;DHT22;6920;50.080;8.226;2023-03-31T06:46:06;10.00;99.90
13697;DHT22;6920;50.080;8.226;2023-03-31T06:48:33;10.00;99.90
13697;DHT22;6920;50.080;8.226;2023-03-31T06:51:04;10.00;99.90
13697;DHT22;6920;50.080;8.226;2023-03-31T06:53:33;10.00;99.90
13697;DHT22;6920;50.080;8.226;2023-03-31T06:56:00;10.00;99.90
13697;DHT22;6920;50.080;8.226;2023-03-31T06:58:27;10.00;99.90
13697;DHT22;6920;50.080;8.226;2023-03-31T07:00:54;10.00;99.90
13697;DHT22;6920;50.080;8.226;2023-03-31T07:03:23;10.00;99.90
13697;DHT22;6920;50.080;8.226;2023-03-31T07:05:51;10.10;99.90
13697;DHT22;6920;50.080;8.226;2023-03-31T07:08:20;10.10;99.90
13697;DHT22;6920;50.080;8.226;2023-03-31T07:10:52;10.10;99.90
13697;DHT22;6920;50.080;8.226;2023-03-31T07:13:19;10.00;99.90
13697;DHT22;6920;50.080;8.226;2023-03-31T07:15:47;10.00;99.90
13697;DHT22;6920;50.080;8.226;2023-03-31T07:18:14;10.00;99.90
13697;DHT22;6920;50.080;8.226;2023-03-31T07:20:42;10.00;99.90
13697;DHT22;6920;50.080;8.226;2023-03-31T07:23:10;10.10;99.90
13697;DHT22;6920;50.080;8.226;2023-03-31T07:25:39;10.10;99.90
13697;DHT22;6920;50.080;8.226;2023-03-31T07:28:07;10.10;99.90
13697;DHT22;6920;50.080;8.226;2023-03-31T07:30:34;10.20;99.90
13697;DHT22;6920;50.080;8.226;2023-03-31T07:33:04;10.30;99.90
13697;DHT22;6920;50.080;8.226;2023-03-31T07:35:32;10.30;99.90
13697;DHT22;6920;50.080;8.226;2023-03-31T07:37:59;10.40;99.90
13697;DHT22;6920;50.080;8.226;2023-03-31T07:40:28;10.30;99.90
13697;DHT22;6920;50.080;8.226;2023-03-31T07:42:55;10.40;99.90
13697;DHT22;6920;50.080;8.226;2023-03-31T07:45:27;10.50;99.90
13697;DHT22;6920;50.080;8.226;2023-03-31T07:47:54;10.70;99.90
13697;DHT22;6920;50.080;8.226;2023-03-31T07:50:23;10.80;99.90
13697;DHT22;6920;50.080;8.226;2023-03-31T07:52:50;10.90;99.90
13697;DHT22;6920;50.080;8.226;2023-03-31T07:55:18;10.90;99.90
13697;DHT22;6920;50.080;8.226;2023-03-31T07:57:45;10.80;99.90
13697;DHT22;6920;50.080;8.226;2023-03-31T08:00:14;10.80;99.90
13697;DHT22;6920;50.080;8.226;2023-03-31T08:02:43;11.20;99.90
13697;DHT22;6920;50.080;8.226;2023-03-31T08:05:10;11.40;99.90
13697;DHT22;6920;50.080;8.226;2023-03-31T08:07:39;11.30;99.90
13697;DHT22;6920;50.080;8.226;2023-03-31T08:10:09;11.30;99.90
13697;DHT22;6920;50.080;8.226;2023-03-31T08:12:37;11.50;99.90
13697;DHT22;6920;50.080;8.226;2023-03-31T08:15:05;11.70;99.90
13697;DHT22;6920;50.080;8.226;2023-03-31T08:17:32;11.70;99.90
13697;DHT22;6920;50.080;8.226;2023-03-31T08:20:01;11.60;99.90
13697;DHT22;6920;50.080;8.226;2023-03-31T08:22:30;11.60;99.90
13697;DHT22;6920;50.080;8.226;2023-03-31T08:24:57;11.70;99.90
13697;DHT22;6920;50.080;8.226;2023-03-31T08:27:24;11.70;99.90
13697;DHT22;6920;50.080;8.226;2023-03-31T08:29:52;11.60;99.90
13697;DHT22;6920;50.080;8.226;2023-03-31T08:32:21;11.60;99.90
13697;DHT22;6920;50.080;8.226;2023-03-31T08:34:49;11.60;99.90
13697;DHT22;6920;50.080;8.226;2023-03-31T08:37:18;11.50;99.90
13697;DHT22;6920;50.080;8.226;2023-03-31T08:39:45;11.30;99.90
13697;DHT22;6920;50.080;8.226;2023-03-31T08:42:16;11.30;99.90
13697;DHT22;6920;50.080;8.226;2023-03-31T08:44:53;11.30;99.90
13697;DHT22;6920;50.080;8.226;2023-03-31T08:47:24;11.40;99.90
13697;DHT22;6920;50.080;8.226;2023-03-31T08:49:56;11.50;99.90
13697;DHT22;6920;50.080;8.226;2023-03-31T08:52:30;11.50;99.90
13697;DHT22;6920;50.080;8.226;2023-03-31T08:55:02;11.70;99.90
13697;DHT22;6920;50.080;8.226;2023-03-31T08:57:34;11.80;99.90
13697;DHT22;6920;50.080;8.226;2023-03-31T09:00:13;12.10;99.90
13697;DHT22;6920;50.080;8.226;2023-03-31T09:02:46;12.30;99.90
13697;DHT22;6920;50.080;8.226;2023-03-31T09:05:26;12.60;99.90
13697;DHT22;6920;50.080;8.226;2023-03-31T09:08:06;12.90;99.90
13697;DHT22;6920;50.080;8.226;2023-03-31T09:10:42;13.30;99.90
13697;DHT22;6920;50.080;8.226;2023-03-31T09:13:36;13.60;99.90
13697;DHT22;6920;50.080;8.226;2023-03-31T09:16:12;13.70;99.90
13697;DHT22;6920;50.080;8.226;2023-03-31T09:18:41;13.70;99.90
13697;DHT22;6920;50.080;8.226;2023-03-31T09:21:15;13.70;99.90
13697;DHT22;6920;50.080;8.226;2023-03-31T09:23:49;13.50;99.90
13697;DHT22;6920;50.080;8.226;2023-03-31T09:26:24;13.60;99.90
13697;DHT22;6920;50.080;8.226;2023-03-31T09:28:55;13.50;99.90
13697;DHT22;6920;50.080;8.226;2023-03-31T09:31:23;13.30;99.90
13697;DHT22;6920;50.080;8.226;2023-03-31T09:33:54;13.20;99.90
13697;DHT22;6920;50.080;8.226;2023-03-31T09:36:24;12.80;99.90
13697;DHT22;6920;50.080;8.226;2023-03-31T09:38:52;12.80;99.90
13697;DHT22;6920;50.080;8.226;2023-03-31T09:41:20;12.90;99.90
13697;DHT22;6920;50.080;8.226;2023-03-31T09:43:47;13.00;99.90
13697;DHT22;6920;50.080;8.226;2023-03-31T09:46:21;13.10;99.90
13697;DHT22;6920;50.080;8.226;2023-03-31T09:48:57;13.00;99.90
13697;DHT22;6920;50.080;8.226;2023-03-31T09:51:29;13.00;99.90
13697;DHT22;6920;50.080;8.226;2023-03-31T09:54:01;13.00;99.90
13697;DHT22;6920;50.080;8.226;2023-03-31T09:56:43;13.00;99.90
13697;DHT22;6920;50.080;8.226;2023-03-31T09:59:14;13.10;99.90
13697;DHT22;6920;50.080;8.226;2023-03-31T10:01:43;13.10;99.90
13697;DHT22;6920;50.080;8.226;2023-03-31T10:04:18;13.10;99.90
13697;DHT22;6920;50.080;8.226;2023-03-31T10:06:48;12.90;99.90
13697;DHT22;6920;50.080;8.226;2023-03-31T10:09:19;12.90;99.90
13697;DHT22;6920;50.080;8.226;2023-03-31T10:11:53;12.80;99.90
13697;DHT22;6920;50.080;8.226;2023-03-31T10:14:29;12.70;99.90
13697;DHT22;6920;50.080;8.226;2023-03-31T10:17:03;12.40;99.90
13697;DHT22;6920;50.080;8.226;2023-03-31T10:19:32;12.10;99.90
13697;DHT22;6920;50.080;8.226;2023-03-31T10:22:00;11.90;99.90
13697;DHT22;6920;50.080;8.226;2023-03-31T10:24:36;11.80;99.90
13697;DHT22;6920;50.080;8.226;2023-03-31T10:27:05;11.60;99.90
13697;DHT22;6920;50.080;8.226;2023-03-31T10:29:34;11.40;99.90
13697;DHT22;6920;50.080;8.226;2023-03-31T10:32:03;11.30;99.90
13697;DHT22;6920;50.080;8.226;2023-03-31T10:34:31;11.20;99.90
13697;DHT22;6920;50.080;8.226;2023-03-31T10:37:03;11.30;99.90
13697;DHT22;6920;50.080;8.226;2023-03-31T10:39:32;11.20;99.90
13697;DHT22;6920;50.080;8.226;2023-03-31T10:42:00;11.20;99.90
13697;DHT22;6920;50.080;8.226;2023-03-31T10:44:31;11.30;99.90
13697;DHT22;6920;50.080;8.226;2023-03-31T10:47:04;11.40;99.90
13697;DHT22;6920;50.080;8.226;2023-03-31T10:49:37;11.50;99.90
13697;DHT22;6920;50.080;8.226;2023-03-31T10:52:16;11.70;99.90
13697;DHT22;6920;50.080;8.226;2023-03-31T10:54:49;12.10;99.90
13697;DHT22;6920;50.080;8.226;2023-03-31T10:57:17;12.50;99.90
13697;DHT22;6920;50.080;8.226;2023-03-31T10:59:55;12.90;99.90
13697;DHT22;6920;50.080;8.226;2023-03-31T11:02:54;13.30;99.90
13697;DHT22;6920;50.080;8.226;2023-03-31T11:05:27;13.60;99.90
13697;DHT22;6920;50.080;8.226;2023-03-31T11:08:04;13.60;99.90
13697;DHT22;6920;50.080;8.226;2023-03-31T11:10:50;13.70;99.90
13697;DHT22;6920;50.080;8.226;2023-03-31T11:13:26;13.90;99.90
13697;DHT22;6920;50.080;8.226;2023-03-31T11:16:03;13.80;99.90
13697;DHT22;6920;50.080;8.226;2023-03-31T11:18:38;13.90;99.90
13697;DHT22;6920;50.080;8.226;2023-03-31T11:21:18;13.50;99.90
13697;DHT22;6920;50.080;8.226;2023-03-31T11:23:51;13.50;99.90
13697;DHT22;6920;50.080;8.226;2023-03-31T11:26:29;13.30;99.90
13697;DHT22;6920;50.080;8.226;2023-03-31T11:29:05;13.10;99.90
13697;DHT22;6920;50.080;8.226;2023-03-31T11:31:44;12.90;99.90
13697;DHT22;6920;50.080;8.226;2023-03-31T11:34:29;13.00;99.90
13697;DHT22;6920;50.080;8.226;2023-03-31T11:37:13;13.20;99.90
13697;DHT22;6920;50.080;8.226;2023-03-31T11:39:50;13.40;99.90
13697;DHT22;6920;50.080;8.226;2023-03-31T11:42:27;13.70;99.90
13697;DHT22;6920;50.080;8.226;2023-03-31T11:44:57;13.80;99.90
13697;DHT22;6920;50.080;8.226;2023-03-31T11:47:30;14.00;99.90
13697;DHT22;6920;50.080;8.226;2023-03-31T11:50:01;14.20;99.90
13697;DHT22;6920;50.080;8.226;2023-03-31T11:52:33;14.30;99.90
13697;DHT22;6920;50.080;8.226;2023-03-31T11:55:04;14.30;99.90
13697;DHT22;6920;50.080;8.226;2023-03-31T11:57:38;14.20;99.90
13697;DHT22;6920;50.080;8.226;2023-03-31T12:00:14;14.10;99.90
13697;DHT22;6920;50.080;8.226;2023-03-31T12:02:46;13.80;99.90
13697;DHT22;6920;50.080;8.226;2023-03-31T12:05:17;13.60;99.90
13697;DHT22;6920;50.080;8.226;2023-03-31T12:07:49;13.30;99.90
13697;DHT22;6920;50.080;8.226;2023-03-31T12:10:20;12.90;99.90
13697;DHT22;6920;50.080;8.226;2023-03-31T12:12:53;12.70;99.90
13697;DHT22;6920;50.080;8.226;2023-03-31T12:15:24;12.60;99.90
13697;DHT22;6920;50.080;8.226;2023-03-31T12:17:56;12.60;99.90
13697;DHT22;6920;50.080;8.226;2023-03-31T12:20:30;12.70;99.90
13697;DHT22;6920;50.080;8.226;2023-03-31T12:22:59;12.70;99.90
13697;DHT22;6920;50.080;8.226;2023-03-31T12:25:39;12.70;99.90
13697;DHT22;6920;50.080;8.226;2023-03-31T12:28:10;12.80;99.90
13697;DHT22;6920;50.080;8.226;2023-03-31T12:30:39;12.90;99.90
13697;DHT22;6920;50.080;8.226;2023-03-31T12:33:14;13.10;99.90
13697;DHT22;6920;50.080;8.226;2023-03-31T12:35:53;13.40;99.90
13697;DHT22;6920;50.080;8.226;2023-03-31T12:38:36;13.80;99.90
13697;DHT22;6920;50.080;8.226;2023-03-31T12:41:11;14.00;99.90
13697;DHT22;6920;50.080;8.226;2023-03-31T12:44:04;14.10;99.90
13697;DHT22;6920;50.080;8.226;2023-03-31T12:46:45;14.00;99.90
13697;DHT22;6920;50.080;8.226;2023-03-31T12:49:25;14.00;99.90
13697;DHT22;6920;50.080;8.226;2023-03-31T12:52:05;14.10;99.90
13697;DHT22;6920;50.080;8.226;2023-03-31T12:54:57;13.90;99.90
13697;DHT22;6920;50.080;8.226;2023-03-31T12:57:28;13.50;99.90
13697;DHT22;6920;50.080;8.226;2023-03-31T13:00:22;13.70;99.90
13697;DHT22;6920;50.080;8.226;2023-03-31T13:03:31;13.90;99.90
13697;DHT22;6920;50.080;8.226;2023-03-31T13:05:44;13.90;99.90
13697;DHT22;6920;50.080;8.226;2023-03-31T13:08:49;14.20;99.90
13697;DHT22;6920;50.080;8.226;2023-03-31T13:11:17;14.60;99.90
13697;DHT22;6920;50.080;8.226;2023-03-31T13:13:50;14.80;99.90
13697;DHT22;6920;50.080;8.226;2023-03-31T13:16:20;14.70;99.90
13697;DHT22;6920;50.080;8.226;2023-03-31T13:18:52;14.60;99.90
13697;DHT22;6920;50.080;8.226;2023-03-31T13:21:20;14.70;99.90
13697;DHT22;6920;50.080;8.226;2023-03-31T13:23:47;14.70;99.90
13697;DHT22;6920;50.080;8.226;2023-03-31T13:26:40;14.60;99.90
13697;DHT22;6920;50.080;8.226;2023-03-31T13:29:22;14.80;99.90
13697;DHT22;6920;50.080;8.226;2023-03-31T13:32:07;14.80;99.90
13697;DHT22;6920;50.080;8.226;2023-03-31T13:34:48;14.80;99.90
13697;DHT22;6920;50.080;8.226;2023-03-31T13:37:41;14.70;99.90
13697;DHT22;6920;50.080;8.226;2023-03-31T13:40:32;14.80;99.90
13697;DHT22;6920;50.080;8.226;2023-03-31T13:43:30;14.90;99.90
13697;DHT22;6920;50.080;8.226;2023-03-31T13:46:13;15.20;99.90
13697;DHT22;6920;50.080;8.226;2023-03-31T13:48:55;15.10;99.90
13697;DHT22;6920;50.080;8.226;2023-03-31T13:51:35;15.30;99.90
13697;DHT22;6920;50.080;8.226;2023-03-31T13:57:27;15.90;99.90
13697;DHT22;6920;50.080;8.226;2023-03-31T14:00:25;15.70;99.90
13697;DHT22;6920;50.080;8.226;2023-03-31T14:03:28;15.60;99.90
13697;DHT22;6920;50.080;8.226;2023-03-31T14:06:05;15.40;99.90
13697;DHT22;6920;50.080;8.226;2023-03-31T14:08:54;15.10;99.90
13697;DHT22;6920;50.080;8.226;2023-03-31T14:11:24;15.00;99.90
13697;DHT22;6920;50.080;8.226;2023-03-31T14:14:02;15.10;99.90
13697;DHT22;6920;50.080;8.226;2023-03-31T14:16:34;15.20;99.90
13697;DHT22;6920;50.080;8.226;2023-03-31T14:19:36;15.30;99.90
13697;DHT22;6920;50.080;8.226;2023-03-31T14:22:19;15.60;99.90
13697;DHT22;6920;50.080;8.226;2023-03-31T14:24:57;15.60;99.90
13697;DHT22;6920;50.080;8.226;2023-03-31T14:27:42;15.40;99.90
13697;DHT22;6920;50.080;8.226;2023-03-31T14:30:20;15.20;99.90
13697;DHT22;6920;50.080;8.226;2023-03-31T14:33:05;15.10;99.90
13697;DHT22;6920;50.080;8.226;2023-03-31T14:35:43;15.10;99.90
13697;DHT22;6920;50.080;8.226;2023-03-31T14:38:18;15.00;99.90
13697;DHT22;6920;50.080;8.226;2023-03-31T14:40:50;14.90;99.90
13697;DHT22;6920;50.080;8.226;2023-03-31T14:43:22;14.80;99.90
13697;DHT22;6920;50.080;8.226;2023-03-31T14:46:02;14.50;99.90
13697;DHT22;6920;50.080;8.226;2023-03-31T14:48:32;14.50;99.90
13697;DHT22;6920;50.080;8.226;2023-03-31T14:51:09;13.10;99.90
13697;DHT22;6920;50.080;8.226;2023-03-31T14:53:40;12.50;99.90
13697;DHT22;6920;50.080;8.226;2023-03-31T14:56:15;12.50;99.90
13697;DHT22;6920;50.080;8.226;2023-03-31T14:58:49;12.50;99.90
13697;DHT22;6920;50.080;8.226;2023-03-31T15:01:23;12.40;99.90
13697;DHT22;6920;50.080;8.226;2023-03-31T15:04:07;12.40;99.90
13697;DHT22;6920;50.080;8.226;2023-03-31T15:06:40;12.20;99.90
13697;DHT22;6920;50.080;8.226;2023-03-31T15:09:13;11.90;99.90
13697;DHT22;6920;50.080;8.226;2023-03-31T15:11:47;11.80;99.90
13697;DHT22;6920;50.080;8.226;2023-03-31T15:14:20;11.80;99.90
13697;DHT22;6920;50.080;8.226;2023-03-31T15:16:49;11.90;99.90
13697;DHT22;6920;50.080;8.226;2023-03-31T15:19:18;12.00;99.90
13697;DHT22;6920;50.080;8.226;2023-03-31T15:21:54;12.00;99.90
13697;DHT22;6920;50.080;8.226;2023-03-31T15:24:27;12.20;99.90
13697;DHT22;6920;50.080;8.226;2023-03-31T15:27:01;12.20;99.90
13697;DHT22;6920;50.080;8.226;2023-03-31T15:29:37;12.30;99.90
13697;DHT22;6920;50.080;8.226;2023-03-31T15:32:13;12.50;99.90
13697;DHT22;6920;50.080;8.226;2023-03-31T15:34:42;12.40;99.90
13697;DHT22;6920;50.080;8.226;2023-03-31T15:37:11;12.40;99.90
13697;DHT22;6920;50.080;8.226;2023-03-31T15:39:44;12.40;99.90
13697;DHT22;6920;50.080;8.226;2023-03-31T15:42:16;12.60;99.90
13697;DHT22;6920;50.080;8.226;2023-03-31T15:44:47;12.60;99.90
13697;DHT22;6920;50.080;8.226;2023-03-31T15:47:18;12.70;99.90
13697;DHT22;6920;50.080;8.226;2023-03-31T15:49:50;12.70;99.90
13697;DHT22;6920;50.080;8.226;2023-03-31T15:52:26;12.80;99.90
13697;DHT22;6920;50.080;8.226;2023-03-31T15:54:55;12.90;99.90
13697;DHT22;6920;50.080;8.226;2023-03-31T15:59:56;12.90;99.90
13697;DHT22;6920;50.080;8.226;2023-03-31T16:02:29;12.80;99.90
13697;DHT22;6920;50.080;8.226;2023-03-31T16:04:58;12.80;99.90
13697;DHT22;6920;50.080;8.226;2023-03-31T16:07:33;12.80;99.90
13697;DHT22;6920;50.080;8.226;2023-03-31T16:10:04;12.50;99.90
13697;DHT22;6920;50.080;8.226;2023-03-31T16:12:36;12.30;99.90
13697;DHT22;6920;50.080;8.226;2023-03-31T16:15:12;11.90;99.90
13697;DHT22;6920;50.080;8.226;2023-03-31T16:17:46;11.80;99.90
13697;DHT22;6920;50.080;8.226;2023-03-31T16:20:20;11.80;99.90
13697;DHT22;6920;50.080;8.226;2023-03-31T16:22:52;11.80;99.90
13697;DHT22;6920;50.080;8.226;2023-03-31T16:25:22;11.90;99.90
13697;DHT22;6920;50.080;8.226;2023-03-31T16:27:51;11.90;99.90
13697;DHT22;6920;50.080;8.226;2023-03-31T16:30:22;11.70;99.90
13697;DHT22;6920;50.080;8.226;2023-03-31T16:32:59;11.70;99.90
13697;DHT22;6920;50.080;8.226;2023-03-31T16:35:33;11.70;99.90
13697;DHT22;6920;50.080;8.226;2023-03-31T16:38:02;11.80;99.90
13697;DHT22;6920;50.080;8.226;2023-03-31T16:40:30;11.90;99.90